Time;durP1;ratioP1;P1;durP2;ratioP2;P2;SDS_P1;SDS_P2;PMS_P1;PMS_P2;Temp;Humidity;BMP_temperature;BMP_pressure;BME280_temperature;BME280_humidity;BME280_pressure;Samples;Min_cycle;Max_cycle;Signal;HPM_P1;HPM_P2
2023/03/29 00:01:41;;;;;;;60.17;4.83;;;7.60;99.90;;;;;;5074197;28;20501;-69
2023/03/29 00:04:12;;;;;;;60.10;4.17;;;7.50;99.90;;;;;;5074223;28;20451;-70
2023/03/29 00:06:40;;;;;;;59.00;4.87;;;7.60;1.00;;;;;;5073932;28;20451;-69
2023/03/29 00:09:09;;;;;;;61.17;4.97;;;7.80;1.00;;;;;;5073711;28;20538;-69
2023/03/29 00:11:36;;;;;;;58.73;4.23;;;7.90;1.00;;;;;;5074085;28;20466;-69
2023/03/29 00:14:03;;;;;;;62.80;4.90;;;7.80;1.00;;;;;;5074048;28;20458;-68
2023/03/29 00:16:30;;;;;;;59.10;3.70;;;7.80;1.00;;;;;;5073912;28;20935;-69
2023/03/29 00:18:57;;;;;;;58.80;4.07;;;7.80;1.00;;;;;;5073532;28;20848;-69
2023/03/29 00:21:24;;;;;;;59.80;4.60;;;7.80;1.00;;;;;;5074430;28;20451;-69
2023/03/29 00:23:51;;;;;;;60.50;4.47;;;7.90;1.00;;;;;;5073860;28;20447;-69
2023/03/29 00:26:19;;;;;;;59.90;4.13;;;7.90;1.00;;;;;;5074084;28;20463;-69
2023/03/29 00:28:46;;;;;;;59.27;4.30;;;7.90;1.00;;;;;;5073137;28;20499;-69
2023/03/29 00:31:14;;;;;;;60.37;4.10;;;7.80;1.00;;;;;;5073758;28;20559;-69
2023/03/29 00:33:42;;;;;;;58.73;4.30;;;7.80;1.00;;;;;;5073540;28;20530;-69
2023/03/29 00:36:11;;;;;;;59.57;4.33;;;7.80;1.00;;;;;;5073786;28;20451;-70
2023/03/29 00:38:38;;;;;;;59.60;4.93;;;7.70;1.00;;;;;;5073285;28;20956;-69
2023/03/29 00:41:06;;;;;;;60.30;4.60;;;7.60;1.00;;;;;;5073800;28;20453;-69
2023/03/29 00:43:53;;;;;;;59.10;4.07;;;7.50;1.00;;;;;;5073388;28;20448;-69
2023/03/29 00:46:19;;;;;;;59.83;5.10;;;7.60;1.00;;;;;;5073241;28;20450;-70
2023/03/29 00:48:46;;;;;;;58.90;4.00;;;7.60;1.00;;;;;;5073022;28;20870;-69
2023/03/29 00:51:15;;;;;;;58.40;3.77;;;7.60;1.00;;;;;;5073452;28;20439;-70
2023/03/29 00:53:47;;;;;;;59.73;4.77;;;7.70;1.00;;;;;;5073168;28;20454;-69
2023/03/29 00:56:21;;;;;;;60.10;4.03;;;7.60;1.00;;;;;;5073177;28;20451;-70
2023/03/29 00:58:52;;;;;;;60.00;5.00;;;7.60;1.00;;;;;;5072760;28;20490;-69
2023/03/29 01:01:27;;;;;;;62.57;5.60;;;7.60;1.00;;;;;;5073253;28;20497;-70
2023/03/29 01:03:59;;;;;;;62.30;5.10;;;7.60;1.00;;;;;;5073195;28;20865;-70
2023/03/29 01:06:28;;;;;;;59.03;4.50;;;7.70;1.00;;;;;;5073416;28;20459;-69
2023/03/29 01:08:59;;;;;;;61.00;5.20;;;7.60;1.00;;;;;;5071555;28;20513;-70
2023/03/29 01:11:30;;;;;;;61.60;5.50;;;7.60;1.00;;;;;;5073100;28;21276;-70
2023/03/29 01:14:01;;;;;;;59.35;4.10;;;7.60;1.00;;;;;;5073027;28;20535;-70
2023/03/29 01:16:31;;;;;;;59.70;4.43;;;7.50;1.00;;;;;;5072771;28;20209;-70
2023/03/29 01:18:59;;;;;;;62.00;4.57;;;7.50;1.00;;;;;;5072443;28;20468;-70
2023/03/29 01:21:31;;;;;;;59.00;4.47;;;7.50;1.00;;;;;;5072936;28;20452;-70
2023/03/29 01:24:32;;;;;;;60.10;5.30;;;7.40;1.00;;;;;;5072529;28;20469;-69
2023/03/29 01:27:08;;;;;;;60.03;4.40;;;7.40;1.00;;;;;;5008834;28;20597;-70
2023/03/29 01:29:39;;;;;;;61.17;4.93;;;7.30;1.00;;;;;;5010474;28;20446;-70
2023/03/29 01:32:11;;;;;;;59.92;4.18;;;7.30;1.00;;;;;;5010697;28;20456;-70
2023/03/29 01:34:43;;;;;;;60.90;4.53;;;7.20;1.00;;;;;;5010330;28;20210;-70
2023/03/29 01:37:16;;;;;;;60.80;4.97;;;7.20;1.00;;;;;;5010437;28;20575;-70
2023/03/29 01:39:42;;;;;;;59.90;4.57;;;7.20;1.00;;;;;;5010103;28;20990;-70
2023/03/29 01:42:27;;;;;;;59.80;4.57;;;7.10;1.00;;;;;;5010111;28;20446;-70
2023/03/29 01:45:03;;;;;;;60.33;5.37;;;7.20;1.00;;;;;;5010321;28;20454;-69
2023/03/29 01:47:39;;;;;;;58.88;4.00;;;7.20;1.00;;;;;;5010230;28;20500;-68
2023/03/29 01:50:14;;;;;;;60.20;4.33;;;7.10;1.00;;;;;;5009867;28;20221;-68
2023/03/29 01:52:46;;;;;;;60.85;4.45;;;7.10;1.00;;;;;;5010216;28;21021;-68
2023/03/29 01:55:16;;;;;;;59.30;4.90;;;7.00;1.00;;;;;;5010180;28;20740;-68
2023/03/29 01:57:44;;;;;;;59.58;4.40;;;6.90;1.00;;;;;;5009972;28;20470;-68
2023/03/29 02:00:15;;;;;;;59.83;4.77;;;6.80;1.00;;;;;;5009701;28;20214;-68
2023/03/29 02:02:44;;;;;;;61.43;4.83;;;6.80;1.00;;;;;;5012268;28;20466;-68
2023/03/29 02:05:13;;;;;;;59.58;4.45;;;6.90;1.00;;;;;;5052145;28;20440;-68
2023/03/29 02:07:42;;;;;;;58.30;4.18;;;6.80;1.00;;;;;;5051815;28;20604;-68
2023/03/29 02:10:10;;;;;;;60.80;4.75;;;6.90;1.00;;;;;;5051591;28;20304;-68
2023/03/29 02:12:38;;;;;;;58.85;4.63;;;6.90;1.00;;;;;;5051827;28;20205;-69
2023/03/29 02:15:06;;;;;;;61.83;4.60;;;7.00;1.00;;;;;;5051802;28;20202;-68
2023/03/29 02:17:34;;;;;;;59.23;4.03;;;7.10;1.00;;;;;;5051635;28;20499;-69
2023/03/29 02:20:12;;;;;;;58.77;3.90;;;7.20;1.00;;;;;;5051331;28;20810;-68
2023/03/29 02:22:46;;;;;;;59.67;4.03;;;7.40;1.00;;;;;;5051651;28;21019;-69
2023/03/29 02:25:14;;;;;;;58.97;4.37;;;7.50;1.00;;;;;;5051515;28;20461;-68
2023/03/29 02:27:42;;;;;;;58.63;4.00;;;7.60;1.00;;;;;;5051344;28;20491;-68
2023/03/29 02:30:10;;;;;;;61.10;4.73;;;7.40;1.00;;;;;;5051562;28;20841;-68
2023/03/29 02:32:48;;;;;;;59.20;4.22;;;7.40;1.00;;;;;;5051702;28;20448;-68
2023/03/29 02:35:19;;;;;;;58.07;4.17;;;7.30;1.00;;;;;;5051674;28;20209;-68
2023/03/29 02:37:48;;;;;;;59.57;4.50;;;;;;;;;;5051390;28;20475;-68
2023/03/29 02:40:17;;;;;;;59.60;4.90;;;7.20;1.00;;;;;;5051070;28;20542;-68
2023/03/29 02:42:45;;;;;;;58.83;4.30;;;;;;;;;;5051469;28;20441;-69
2023/03/29 02:45:13;;;;;;;60.50;4.50;;;;;;;;;;5051694;28;20208;-69
2023/03/29 02:47:46;;;;;;;59.23;4.77;;;7.10;1.00;;;;;;5051499;28;20468;-69
2023/03/29 02:50:13;;;;;;;59.43;4.20;;;7.10;1.00;;;;;;5051245;28;20458;-68
2023/03/29 02:52:45;;;;;;;60.13;4.20;;;7.20;1.00;;;;;;5051319;28;20452;-69
2023/03/29 02:55:16;;;;;;;60.05;4.53;;;7.20;1.00;;;;;;5051381;28;20665;-69
2023/03/29 02:57:43;;;;;;;58.87;4.07;;;7.20;1.00;;;;;;5051312;28;20718;-68
2023/03/29 03:00:13;;;;;;;59.97;4.70;;;7.20;1.00;;;;;;5051167;28;20444;-69
2023/03/29 03:02:40;;;;;;;59.72;4.72;;;7.20;1.00;;;;;;5051307;28;20479;-68
2023/03/29 03:05:09;;;;;;;59.40;4.50;;;7.10;1.00;;;;;;5051367;28;20213;-68
2023/03/29 03:07:36;;;;;;;61.10;5.20;;;7.10;1.00;;;;;;5051025;28;20703;-68
2023/03/29 03:10:03;;;;;;;59.65;4.35;;;7.10;1.00;;;;;;5051117;28;20450;-68
2023/03/29 03:12:30;;;;;;;59.57;4.67;;;7.10;1.00;;;;;;5051220;28;20264;-69
2023/03/29 03:14:57;;;;;;;60.17;4.50;;;7.10;1.00;;;;;;5051294;28;20965;-69
2023/03/29 03:17:24;;;;;;;60.50;5.07;;;7.10;1.00;;;;;;5051192;28;20252;-69
2023/03/29 03:19:52;;;;;;;60.20;3.90;;;7.10;1.00;;;;;;5050749;28;20441;-69
2023/03/29 03:22:20;;;;;;;59.08;4.13;;;7.20;1.00;;;;;;5051431;28;20456;-68
2023/03/29 03:24:48;;;;;;;59.88;4.40;;;7.30;1.00;;;;;;5051107;28;20218;-68
2023/03/29 03:27:15;;;;;;;59.47;4.30;;;7.30;1.00;;;;;;5051167;28;20600;-69
2023/03/29 03:29:42;;;;;;;59.17;4.40;;;7.30;1.00;;;;;;5050687;28;20484;-68
2023/03/29 03:32:11;;;;;;;60.47;5.03;;;7.30;1.00;;;;;;5052036;28;20217;-68
2023/03/29 03:34:37;;;;;;;61.42;4.95;;;7.30;1.00;;;;;;5054665;28;20543;-68
2023/03/29 03:37:04;;;;;;;58.65;3.90;;;7.20;1.00;;;;;;5054605;28;20575;-68
2023/03/29 03:39:33;;;;;;;62.63;4.80;;;;;;;;;;5054379;28;20202;-69
2023/03/29 03:41:59;;;;;;;60.97;4.30;;;7.20;1.00;;;;;;5054722;28;20450;-69
2023/03/29 03:44:26;;;;;;;59.20;3.80;;;7.40;1.00;;;;;;5054554;28;20539;-68
2023/03/29 03:46:53;;;;;;;59.57;4.90;;;7.60;1.00;;;;;;5054401;28;20476;-69
2023/03/29 03:49:20;;;;;;;60.00;4.90;;;7.70;1.00;;;;;;5054338;28;20613;-69
2023/03/29 03:51:47;;;;;;;59.97;4.28;;;7.80;1.00;;;;;;5054575;28;20506;-69
2023/03/29 03:54:14;;;;;;;61.53;4.20;;;7.80;1.00;;;;;;5054527;28;20205;-68
2023/03/29 03:56:43;;;;;;;62.77;4.73;;;8.00;1.00;;;;;;5054461;28;20831;-68
2023/03/29 03:59:10;;;;;;;59.27;4.67;;;;;;;;;;5054026;28;20449;-69
2023/03/29 04:01:42;;;;;;;58.83;4.30;;;8.20;1.00;;;;;;5054151;28;20454;-69
2023/03/29 04:04:09;;;;;;;59.10;4.10;;;8.30;1.00;;;;;;5054549;28;20452;-69
2023/03/29 04:06:36;;;;;;;59.83;4.40;;;8.40;1.00;;;;;;5054197;28;20459;-68
2023/03/29 04:09:03;;;;;;;61.80;5.07;;;8.50;1.00;;;;;;5053859;28;20515;-68
2023/03/29 04:11:30;;;;;;;59.23;3.77;;;8.50;1.00;;;;;;5054142;28;20802;-68
2023/03/29 04:13:59;;;;;;;59.50;4.60;;;;;;;;;;5053966;28;20832;-68
2023/03/29 04:16:26;;;;;;;59.60;4.37;;;8.40;1.00;;;;;;5054219;28;20444;-68
2023/03/29 04:18:53;;;;;;;60.87;5.33;;;;;;;;;;5053915;28;20936;-69
2023/03/29 04:21:20;;;;;;;60.60;5.03;;;;;;;;;;5053912;28;20448;-68
2023/03/29 04:23:47;;;;;;;64.80;5.50;;;8.60;1.00;;;;;;5053706;28;20945;-67
2023/03/29 04:26:16;;;;;;;59.67;4.30;;;8.50;1.00;;;;;;5053827;28;20467;-68
2023/03/29 04:28:43;;;;;;;63.30;4.67;;;8.60;1.00;;;;;;5053172;28;20494;-69
2023/03/29 04:31:13;;;;;;;59.23;4.10;;;8.60;1.00;;;;;;5054364;28;20448;-71
2023/03/29 04:33:41;;;;;;;59.30;4.20;;;8.60;1.00;;;;;;5054060;28;20462;-71
2023/03/29 04:36:08;;;;;;;60.30;4.20;;;8.70;1.00;;;;;;5053724;28;20551;-69
2023/03/29 04:38:36;;;;;;;58.63;4.13;;;8.70;1.00;;;;;;5053590;28;20474;-69
2023/03/29 04:41:04;;;;;;;60.67;4.30;;;;;;;;;;5053520;28;20456;-69
2023/03/29 04:43:31;;;;;;;63.03;4.70;;;;;;;;;;5053595;28;20940;-68
2023/03/29 04:45:58;;;;;;;59.80;3.97;;;8.70;1.00;;;;;;5053725;28;20539;-69
2023/03/29 04:48:27;;;;;;;59.87;4.50;;;8.90;1.00;;;;;;5053303;28;20490;-69
2023/03/29 04:50:54;;;;;;;58.60;4.00;;;8.90;1.00;;;;;;5053262;28;20483;-69
2023/03/29 04:53:22;;;;;;;60.73;4.20;;;;;;;;;;5053409;28;20449;-71
2023/03/29 04:55:49;;;;;;;60.13;4.50;;;;;;;;;;5053341;28;20452;-71
2023/03/29 04:58:16;;;;;;;60.20;4.67;;;8.90;1.00;;;;;;5053257;28;20495;-69
2023/03/29 05:00:44;;;;;;;59.60;4.40;;;8.90;1.00;;;;;;5053255;28;20517;-69
2023/03/29 05:03:13;;;;;;;59.40;4.50;;;;;;;;;;5053242;28;20809;-70
2023/03/29 05:05:42;;;;;;;61.60;5.33;;;;;;;;;;5053129;28;20856;-70
2023/03/29 05:08:09;;;;;;;62.90;4.70;;;;;;;;;;5052800;28;20488;-69
2023/03/29 05:10:36;;;;;;;61.37;5.00;;;8.90;1.00;;;;;;5052959;28;20494;-70
2023/03/29 05:13:03;;;;;;;59.90;5.73;;;8.90;1.00;;;;;;5052814;28;20450;-70
2023/03/29 05:15:30;;;;;;;62.07;4.90;;;8.80;1.00;;;;;;5053075;28;20444;-70
2023/03/29 05:17:59;;;;;;;61.07;5.27;;;8.80;1.00;;;;;;5052898;28;20464;-70
2023/03/29 05:20:27;;;;;;;60.90;5.23;;;8.90;1.00;;;;;;5052727;28;20559;-70
2023/03/29 05:22:55;;;;;;;63.03;4.60;;;8.90;1.00;;;;;;5052777;28;20449;-70
2023/03/29 05:25:22;;;;;;;62.00;4.93;;;;;;;;;;5052720;28;20467;-70
2023/03/29 05:27:50;;;;;;;60.40;5.20;;;9.00;1.00;;;;;;5052796;28;20551;-70
2023/03/29 05:30:17;;;;;;;61.03;5.37;;;;;;;;;;5052652;28;20480;-70
2023/03/29 05:32:45;;;;;;;64.33;5.40;;;;;;;;;;5052686;28;20451;-69
2023/03/29 05:35:12;;;;;;;62.20;5.57;;;9.20;1.00;;;;;;5052647;28;20456;-70
2023/03/29 05:37:39;;;;;;;59.50;4.77;;;9.10;1.00;;;;;;5052489;28;20475;-70
2023/03/29 05:40:09;;;;;;;60.47;4.77;;;9.20;1.00;;;;;;5052368;28;20448;-69
2023/03/29 05:42:37;;;;;;;60.47;5.77;;;9.20;1.00;;;;;;5052758;28;20456;-69
2023/03/29 05:45:05;;;;;;;60.70;5.13;;;;;;;;;;5052379;28;20535;-70
2023/03/29 05:47:32;;;;;;;62.10;5.90;;;9.20;1.00;;;;;;5052460;28;20468;-70
2023/03/29 05:49:58;;;;;;;59.40;4.83;;;9.20;1.00;;;;;;5051927;28;20486;-70
2023/03/29 05:52:26;;;;;;;62.23;5.20;;;9.20;1.00;;;;;;5052525;28;20463;-70
2023/03/29 05:54:53;;;;;;;60.30;4.80;;;;;;;;;;5052178;28;20539;-70
2023/03/29 05:57:21;;;;;;;62.33;5.40;;;9.30;1.00;;;;;;5052265;28;20624;-69
2023/03/29 05:59:48;;;;;;;61.50;5.40;;;9.40;1.00;;;;;;5052458;28;20892;-70
2023/03/29 06:02:15;;;;;;;60.77;5.50;;;;;;;;;;5052530;28;20448;-70
2023/03/29 06:04:43;;;;;;;71.47;5.40;;;;;;;;;;5052452;28;20460;-69
2023/03/29 06:07:11;;;;;;;59.30;4.90;;;9.50;1.00;;;;;;5052192;28;20483;-70
2023/03/29 06:09:39;;;;;;;60.77;5.10;;;9.60;1.00;;;;;;5051780;28;20488;-70
2023/03/29 06:12:06;;;;;;;63.30;5.50;;;9.70;1.00;;;;;;5052178;28;20451;-70
2023/03/29 06:14:35;;;;;;;59.77;5.00;;;9.70;1.00;;;;;;5052209;28;20448;-70
2023/03/29 06:17:02;;;;;;;61.33;5.60;;;9.80;1.00;;;;;;5051708;28;20477;-70
2023/03/29 06:19:29;;;;;;;63.27;5.10;;;9.80;1.00;;;;;;5051839;28;20476;-71
2023/03/29 06:21:56;;;;;;;63.63;6.37;;;10.00;1.00;;;;;;5052131;28;20840;-70
2023/03/29 06:24:23;;;;;;;61.93;5.10;;;10.00;1.00;;;;;;5051830;28;20550;-70
2023/03/29 06:26:51;;;;;;;62.67;5.27;;;;;;;;;;5052041;28;20822;-70
2023/03/29 06:29:18;;;;;;;60.20;4.57;;;;;;;;;;5051442;28;20542;-70
2023/03/29 06:31:46;;;;;;;65.83;5.20;;;;;;;;;;5052164;28;20448;-69
2023/03/29 06:34:15;;;;;;;60.40;4.93;;;;;;;;;;5052017;28;20452;-70
2023/03/29 06:36:42;;;;;;;61.50;5.60;;;;;;;;;;5052107;28;20493;-70
2023/03/29 06:39:09;;;;;;;61.23;5.47;;;;;;;;;;5051635;28;20454;-71
2023/03/29 06:41:37;;;;;;;61.50;4.77;;;10.50;1.00;;;;;;5051877;28;20448;-71
2023/03/29 06:44:04;;;;;;;63.80;4.87;;;10.50;1.00;;;;;;5051787;28;21043;-70
2023/03/29 06:46:31;;;;;;;61.60;5.90;;;10.60;1.00;;;;;;5051961;28;20835;-70
2023/03/29 06:48:59;;;;;;;61.47;5.20;;;10.70;1.00;;;;;;5051611;28;20522;-71
2023/03/29 06:51:26;;;;;;;64.70;4.87;;;10.80;1.00;;;;;;5051848;28;20982;-70
2023/03/29 06:53:57;;;;;;;65.20;4.93;;;10.90;1.00;;;;;;5052005;28;20452;-71
2023/03/29 06:56:24;;;;;;;59.73;4.60;;;11.00;1.00;;;;;;5051425;28;20483;-70
2023/03/29 06:58:51;;;;;;;60.63;4.90;;;11.10;1.00;;;;;;5051062;28;20518;-70
2023/03/29 07:01:18;;;;;;;60.43;4.60;;;11.30;1.00;;;;;;5051737;28;20483;-70
2023/03/29 07:03:46;;;;;;;59.47;4.13;;;11.60;1.00;;;;;;5051801;28;20937;-71
2023/03/29 07:06:16;;;;;;;60.70;4.87;;;11.80;1.00;;;;;;5051418;28;20964;-68
2023/03/29 07:08:43;;;;;;;61.60;4.63;;;12.00;1.00;;;;;;5054706;28;20491;-68
2023/03/29 07:11:12;;;;;;;61.87;5.20;;;12.10;1.00;;;;;;5055170;28;20487;-67
2023/03/29 07:13:41;;;;;;;62.70;5.20;;;12.20;1.00;;;;;;5055254;28;20452;-68
2023/03/29 07:16:11;;;;;;;61.80;5.10;;;12.30;1.00;;;;;;5055280;28;20547;-68
2023/03/29 07:18:38;;;;;;;64.23;4.90;;;12.10;99.90;;;;;;5054636;28;20998;-68
2023/03/29 07:21:05;;;;;;;60.87;5.17;;;11.90;99.90;;;;;;5055130;28;20539;-69
2023/03/29 07:23:34;;;;;;;62.30;4.63;;;11.90;99.90;;;;;;5055090;28;20882;-68
2023/03/29 07:26:02;;;;;;;59.53;4.00;;;12.00;99.90;;;;;;5055157;28;20951;-69
2023/03/29 07:28:29;;;;;;;59.40;4.47;;;12.10;99.90;;;;;;5054698;28;20472;-69
2023/03/29 07:31:03;;;;;;;66.23;4.60;;;12.40;99.90;;;;;;5054932;28;20537;-69
2023/03/29 07:33:30;;;;;;;64.73;4.50;;;12.50;99.90;;;;;;5054890;28;20447;-69
2023/03/29 07:35:57;;;;;;;61.73;5.57;;;12.60;99.90;;;;;;5054730;28;20491;-69
2023/03/29 07:38:25;;;;;;;62.40;4.57;;;12.70;99.90;;;;;;5054362;28;20945;-68
2023/03/29 07:40:53;;;;;;;62.87;5.30;;;12.90;99.90;;;;;;5054559;28;20849;-69
2023/03/29 07:43:20;;;;;;;59.97;4.07;;;13.10;99.90;;;;;;5054352;28;20447;-69
2023/03/29 07:45:47;;;;;;;62.27;4.70;;;13.20;99.90;;;;;;5054776;28;20454;-69
2023/03/29 07:48:14;;;;;;;59.27;4.50;;;13.30;99.90;;;;;;5054223;28;20472;-69
2023/03/29 07:50:42;;;;;;;60.70;4.23;;;;;;;;;;5053910;28;21268;-69
2023/03/29 07:53:09;;;;;;;59.70;4.53;;;;;;;;;;5054506;28;20452;-69
2023/03/29 07:55:36;;;;;;;62.83;4.87;;;;;;;;;;5054347;28;20455;-69
2023/03/29 07:58:05;;;;;;;62.27;4.80;;;13.70;99.90;;;;;;5054189;28;20472;-69
2023/03/29 08:00:32;;;;;;;61.70;5.13;;;13.80;99.90;;;;;;5053941;28;20447;-69
2023/03/29 08:03:00;;;;;;;59.60;4.30;;;13.90;99.90;;;;;;5053984;28;20963;-69
2023/03/29 08:05:27;;;;;;;59.90;4.13;;;14.10;99.90;;;;;;5053928;28;20554;-69
2023/03/29 08:07:54;;;;;;;63.00;4.37;;;14.30;99.90;;;;;;5052446;28;20555;-69
2023/03/29 08:10:22;;;;;;;59.33;3.90;;;14.30;99.90;;;;;;5052684;28;21099;-69
2023/03/29 08:12:51;;;;;;;59.87;3.63;;;14.40;99.90;;;;;;5054218;28;20459;-70
2023/03/29 08:15:19;;;;;;;60.00;3.97;;;14.50;99.90;;;;;;5064529;28;20458;-69
2023/03/29 08:17:46;;;;;;;63.53;4.80;;;14.60;99.90;;;;;;5072955;28;20476;-69
2023/03/29 08:20:15;;;;;;;61.43;4.20;;;14.60;99.90;;;;;;5072934;28;20455;-69
2023/03/29 08:22:42;;;;;;;65.67;3.60;;;14.70;99.90;;;;;;5074102;28;20944;-70
2023/03/29 08:25:10;;;;;;;60.57;4.47;;;14.90;99.90;;;;;;5073903;28;20455;-70
2023/03/29 08:27:37;;;;;;;60.30;4.20;;;14.80;99.90;;;;;;5073446;28;20537;-70
2023/03/29 08:30:06;;;;;;;59.60;4.77;;;14.80;99.90;;;;;;5073244;28;20490;-70
2023/03/29 08:32:35;;;;;;;62.80;3.70;;;14.90;99.90;;;;;;5073609;28;20489;-70
2023/03/29 08:35:03;;;;;;;60.90;4.63;;;14.90;99.90;;;;;;5073796;28;20487;-69
2023/03/29 08:37:30;;;;;;;59.60;4.50;;;14.80;99.90;;;;;;5073541;28;20528;-70
2023/03/29 08:39:57;;;;;;;61.60;4.87;;;14.80;99.90;;;;;;5073672;28;20453;-70
2023/03/29 08:42:40;;;;;;;62.07;3.73;;;14.90;99.90;;;;;;5073450;28;20450;-70
2023/03/29 08:45:15;;;;;;;60.57;3.60;;;15.00;99.90;;;;;;5073239;28;20451;-70
2023/03/29 08:47:51;;;;;;;62.60;4.10;;;15.00;99.90;;;;;;5073398;28;20477;-70
2023/03/29 08:50:20;;;;;;;61.83;3.73;;;14.80;99.90;;;;;;5072847;28;20482;-70
2023/03/29 08:52:52;;;;;;;60.17;4.43;;;14.70;99.90;;;;;;5053231;28;20765;-69
2023/03/29 08:55:26;;;;;;;61.47;3.90;;;14.90;99.90;;;;;;5052898;28;20453;-69
2023/03/29 08:57:55;;;;;;;58.83;3.60;;;15.00;99.90;;;;;;5052808;28;20475;-70
2023/03/29 09:00:31;;;;;;;63.40;3.60;;;15.10;99.90;;;;;;5052708;28;20470;-70
2023/03/29 09:03:01;;;;;;;58.57;3.80;;;15.20;99.90;;;;;;5052907;28;20501;-70
2023/03/29 09:05:33;;;;;;;59.20;3.50;;;15.20;99.90;;;;;;5052897;28;20539;-70
2023/03/29 09:08:00;;;;;;;59.40;4.43;;;15.30;99.90;;;;;;5052899;28;20468;-69
2023/03/29 09:10:32;;;;;;;63.97;6.60;;;15.40;99.90;;;;;;5052564;28;20487;-70
2023/03/29 09:13:13;;;;;;;66.97;9.90;;;15.50;99.90;;;;;;5052683;28;20787;-69
2023/03/29 09:15:47;;;;;;;65.87;8.10;;;15.60;99.90;;;;;;5052789;28;20448;-69
2023/03/29 09:18:25;;;;;;;60.73;5.10;;;15.80;99.90;;;;;;5052313;28;20827;-70
2023/03/29 09:20:56;;;;;;;60.50;4.60;;;15.80;99.90;;;;;;5052385;28;20963;-69
2023/03/29 09:23:52;;;;;;;59.77;3.70;;;15.60;99.90;;;;;;5052649;28;20479;-69
2023/03/29 09:26:24;;;;;;;60.37;3.70;;;15.80;99.90;;;;;;5052541;28;20445;-69
2023/03/29 09:29:01;;;;;;;61.40;3.80;;;15.30;99.90;;;;;;5051836;28;20515;-69
2023/03/29 09:31:32;;;;;;;58.77;3.40;;;15.20;99.90;;;;;;5052025;28;20579;-70
2023/03/29 09:34:08;;;;;;;60.23;3.47;;;15.30;99.90;;;;;;5052450;28;20799;-70
2023/03/29 09:36:42;;;;;;;59.00;3.63;;;15.60;99.90;;;;;;5052282;28;20448;-70
2023/03/29 09:39:11;;;;;;;59.80;3.40;;;15.90;99.90;;;;;;5051914;28;20459;-70
2023/03/29 09:41:42;;;;;;;58.73;3.17;;;16.20;99.90;;;;;;5052361;28;20454;-70
2023/03/29 09:44:13;;;;;;;59.20;4.10;;;16.60;99.90;;;;;;5052406;28;20448;-70
2023/03/29 09:46:43;;;;;;;58.00;3.00;;;16.50;99.90;;;;;;5052108;28;20456;-70
2023/03/29 09:49:16;;;;;;;59.33;4.00;;;16.20;99.90;;;;;;5051843;28;20731;-70
2023/03/29 09:51:45;;;;;;;58.57;3.20;;;16.30;99.90;;;;;;5051930;28;20484;-71
2023/03/29 09:54:12;;;;;;;59.17;3.60;;;16.40;99.90;;;;;;5052135;28;20460;-71
2023/03/29 09:56:39;;;;;;;58.50;3.23;;;16.60;99.90;;;;;;5052041;28;20453;-71
2023/03/29 09:59:06;;;;;;;59.90;3.50;;;16.60;99.90;;;;;;5051489;28;20941;-71
2023/03/29 10:01:38;;;;;;;59.47;3.57;;;16.40;99.90;;;;;;5051775;28;20444;-71
2023/03/29 10:04:07;;;;;;;59.93;3.20;;;16.10;99.90;;;;;;5051767;28;20453;-70
2023/03/29 10:06:37;;;;;;;58.87;3.30;;;16.10;99.90;;;;;;5051883;28;20456;-71
2023/03/29 10:09:14;;;;;;;58.37;3.33;;;16.50;99.90;;;;;;5052002;28;20479;-71
2023/03/29 10:11:45;;;;;;;60.23;3.37;;;17.00;99.90;;;;;;5051528;28;20491;-70
2023/03/29 10:14:16;;;;;;;59.27;3.70;;;17.70;99.90;;;;;;5051734;28;20476;-68
2023/03/29 10:16:44;;;;;;;59.87;3.70;;;18.10;99.90;;;;;;5051592;28;20459;-71
2023/03/29 10:19:21;;;;;;;60.30;3.77;;;18.10;99.90;;;;;;5051642;28;20458;-71
2023/03/29 10:21:50;;;;;;;57.93;3.17;;;18.10;99.90;;;;;;5051850;28;20450;-71
2023/03/29 10:24:21;;;;;;;60.40;3.80;;;18.40;99.90;;;;;;5051511;28;20467;-69
2023/03/29 10:26:54;;;;;;;58.50;3.60;;;18.60;99.90;;;;;;5051451;28;20452;-69
2023/03/29 10:29:21;;;;;;;61.00;3.50;;;19.00;99.90;;;;;;5051229;28;20971;-69
2023/03/29 10:31:50;;;;;;;60.83;3.43;;;19.80;99.90;;;;;;5051576;28;20490;-69
2023/03/29 10:34:18;;;;;;;59.57;3.60;;;20.30;99.90;;;;;;5051498;28;20444;-69
2023/03/29 10:36:53;;;;;;;58.77;3.40;;;19.90;99.90;;;;;;5051495;28;20501;-69
2023/03/29 10:39:21;;;;;;;60.47;3.60;;;19.10;99.90;;;;;;5051032;28;20986;-68
2023/03/29 10:41:52;;;;;;;58.83;3.20;;;18.60;99.90;;;;;;5053609;28;20446;-69
2023/03/29 10:44:27;;;;;;;59.60;3.30;;;18.70;99.90;;;;;;5055586;28;20464;-69
2023/03/29 10:46:55;;;;;;;58.00;3.27;;;18.70;99.90;;;;;;5055417;28;20464;-69
2023/03/29 10:49:24;;;;;;;58.60;2.93;;;18.70;99.90;;;;;;5055193;28;20456;-69
2023/03/29 10:51:52;;;;;;;58.80;3.90;;;19.10;99.90;;;;;;5055319;28;20574;-69
2023/03/29 10:54:23;;;;;;;58.57;3.53;;;19.50;99.90;;;;;;5055477;28;20463;-69
2023/03/29 10:56:55;;;;;;;58.80;3.60;;;19.60;99.90;;;;;;5055437;28;20450;-70
2023/03/29 10:59:27;;;;;;;59.60;3.33;;;19.50;99.90;;;;;;5055084;28;20558;-69
2023/03/29 11:02:30;;;;;;;58.67;3.30;;;19.50;99.90;;;;;;5055247;28;20459;-69
2023/03/29 11:05:09;;;;;;;59.17;3.60;;;20.40;99.90;;;;;;5055180;28;20455;-70
2023/03/29 11:07:41;;;;;;;57.90;3.30;;;22.60;99.90;;;;;;5055234;28;20476;-69
2023/03/29 11:10:27;;;;;;;58.00;3.17;;;23.80;99.90;;;;;;5054758;28;20831;-70
2023/03/29 11:12:58;;;;;;;57.90;3.20;;;25.20;99.90;;;;;;5054951;28;20447;-70
2023/03/29 11:15:44;;;;;;;59.57;3.50;;;25.90;99.90;;;;;;5055208;28;20965;-70
2023/03/29 11:18:39;;;;;;;59.00;3.10;;;25.40;99.90;;;;;;5054939;28;20521;-69
2023/03/29 11:21:15;;;;;;;58.60;3.50;;;24.80;99.90;;;;;;5045801;28;20448;-70
2023/03/29 11:23:50;;;;;;;57.80;2.90;;;24.10;99.90;;;;;;5054864;28;20447;-69
2023/03/29 11:26:23;;;;;;;58.20;3.30;;;24.20;99.90;;;;;;5054712;28;20448;-70
2023/03/29 11:28:56;;;;;;;58.43;3.20;;;24.70;99.90;;;;;;5067960;28;20496;-70
2023/03/29 11:31:29;;;;;;;58.50;3.30;;;;;;;;;;5074583;28;20569;-70
2023/03/29 11:34:11;;;;;;;59.97;3.50;;;24.90;99.90;;;;;;5074648;28;20487;-70
2023/03/29 11:36:49;;;;;;;57.67;3.20;;;25.40;99.90;;;;;;5073669;28;20451;-71
2023/03/29 11:39:20;;;;;;;58.37;3.20;;;;;;;;;;5073762;28;20439;-70
2023/03/29 11:41:50;;;;;;;57.53;3.13;;;;;;;;;;5074944;28;20995;-70
2023/03/29 11:44:22;;;;;;;58.00;3.33;;;29.50;99.90;;;;;;5074982;28;20483;-70
2023/03/29 11:46:55;;;;;;;60.30;3.53;;;30.40;99.90;;;;;;5074455;28;20448;-71
2023/03/29 11:49:24;;;;;;;58.50;3.50;;;;;;;;;;5074218;28;20468;-70
2023/03/29 11:51:54;;;;;;;58.47;3.27;;;;;;;;;;5073636;28;20479;-70
2023/03/29 11:54:27;;;;;;;58.13;3.20;;;30.80;99.90;;;;;;5073141;28;20461;-70
2023/03/29 11:56:59;;;;;;;59.37;3.17;;;32.60;99.90;;;;;;5074185;28;20455;-70
2023/03/29 11:59:33;;;;;;;58.47;3.10;;;33.20;99.90;;;;;;5073963;28;20805;-70
2023/03/29 12:02:08;;;;;;;58.23;3.07;;;33.30;99.90;;;;;;5074153;28;20446;-70
2023/03/29 12:04:41;;;;;;;57.10;2.90;;;34.30;99.90;;;;;;5074171;28;20450;-70
2023/03/29 12:07:15;;;;;;;58.53;3.50;;;31.40;99.90;;;;;;5073892;28;20469;-70
2023/03/29 12:09:49;;;;;;;59.77;3.43;;;28.70;99.90;;;;;;5073390;28;20455;-70
2023/03/29 12:12:23;;;;;;;58.50;3.10;;;27.90;99.90;;;;;;5074031;28;20540;-69
2023/03/29 12:14:58;;;;;;;59.00;2.83;;;28.30;99.90;;;;;;5073960;28;20451;-70
2023/03/29 12:17:30;;;;;;;58.57;3.23;;;28.50;99.90;;;;;;5073778;28;20975;-70
2023/03/29 12:20:06;;;;;;;58.80;3.13;;;29.00;99.90;;;;;;5073730;28;20447;-70
2023/03/29 12:22:33;;;;;;;57.30;2.63;;;30.20;99.90;;;;;;5073736;28;20439;-70
2023/03/29 12:25:02;;;;;;;58.77;3.10;;;29.80;99.90;;;;;;5072512;28;20462;-69
2023/03/29 12:27:35;;;;;;;61.10;3.20;;;28.60;99.90;;;;;;5073715;28;20475;-70
2023/03/29 12:30:29;;;;;;;59.23;3.37;;;27.10;99.90;;;;;;5072777;28;20459;-69
2023/03/29 12:33:08;;;;;;;58.37;3.30;;;26.40;99.90;;;;;;5073140;28;20470;-70
2023/03/29 12:35:41;;;;;;;59.13;3.20;;;25.10;99.90;;;;;;5073636;28;20457;-69
2023/03/29 12:38:19;;;;;;;58.33;3.37;;;24.80;99.90;;;;;;5073637;28;20806;-69
2023/03/29 12:40:48;;;;;;;58.10;3.30;;;25.10;99.90;;;;;;5073298;28;20504;-70
2023/03/29 12:43:23;;;;;;;59.67;3.37;;;25.70;99.90;;;;;;5073491;28;20486;-70
2023/03/29 12:45:53;;;;;;;58.93;3.13;;;26.30;99.90;;;;;;5073216;28;20446;-70
2023/03/29 12:48:24;;;;;;;59.77;3.20;;;26.80;99.90;;;;;;5072443;28;20459;-70
2023/03/29 12:50:53;;;;;;;57.60;2.93;;;27.00;99.90;;;;;;5072822;28;20980;-70
2023/03/29 12:53:24;;;;;;;58.33;3.20;;;27.60;99.90;;;;;;5073187;28;20815;-70
2023/03/29 12:56:11;;;;;;;58.00;3.07;;;27.80;99.90;;;;;;5072986;28;20451;-70
2023/03/29 12:58:51;;;;;;;59.07;3.30;;;27.50;99.90;;;;;;5072647;28;21094;-70
2023/03/29 13:01:26;;;;;;;58.07;3.03;;;27.10;99.90;;;;;;5072806;28;20450;-70
2023/03/29 13:03:57;;;;;;;58.77;3.33;;;26.80;99.90;;;;;;5072688;28;20443;-70
2023/03/29 13:06:31;;;;;;;58.07;2.77;;;26.50;99.90;;;;;;5072612;28;20865;-70
2023/03/29 13:09:00;;;;;;;57.97;2.83;;;26.20;99.90;;;;;;5072448;28;20478;-69
2023/03/29 13:11:32;;;;;;;58.03;3.03;;;26.40;99.90;;;;;;5072680;28;20472;-70
2023/03/29 13:14:03;;;;;;;60.13;3.30;;;27.50;99.90;;;;;;5072953;28;20447;-70